< < Back
Terminal Aerodrome Forecast


Current Version              Previous Versions:   1  2  3  4  5  6  7  8  9  

Terminal Aerodrome Forecast

868
FTUS44 KMOB 220500
TAFMOB
TAF
KMOB 220522Z 2206/2306 05004KT P6SM SKC
     FM221200 09011KT P6SM BKN250
     FM221800 11010KT P6SM BKN050
     FM230100 09010KT 5SM BR BKN015=



Latest METAR

828
SAUS80 KWBC 221400 RRA
MTRMOB
METAR KMOB 221356Z 08009KT 10SM FEW044 SCT250 12/06 A3028 RMK AO2 SLP253
T01170056


USA.gov is the U.S. government's official web portal to all federal, state and local government web resources and services.